createdAt,value
2018-12-22T00:01:21.125Z,100496.10
2018-12-22T00:03:48.869Z,100505.00
2018-12-22T00:06:16.578Z,100510.50
2018-12-22T00:08:44.373Z,100511.73
2018-12-22T00:11:12.125Z,100511.84
2018-12-22T00:13:39.886Z,100501.34
2018-12-22T00:16:07.645Z,100505.03
2018-12-22T00:18:35.352Z,100501.27
2018-12-22T00:21:03.117Z,100499.34
2018-12-22T00:23:30.867Z,100506.27
2018-12-22T00:25:58.610Z,100501.52
2018-12-22T00:28:26.344Z,100500.08
2018-12-22T00:30:54.096Z,100501.58
2018-12-22T00:33:21.857Z,100503.64
2018-12-22T00:35:49.544Z,100493.70
2018-12-22T00:38:17.251Z,100490.12
2018-12-22T00:40:44.950Z,100500.91
2018-12-22T00:43:12.760Z,100494.95
2018-12-22T00:45:40.510Z,100501.52
2018-12-22T00:48:08.249Z,100493.05
2018-12-22T00:50:35.991Z,100490.50
2018-12-22T00:53:03.902Z,100495.95
2018-12-22T00:55:31.633Z,100496.14
2018-12-22T00:57:59.346Z,100500.03
2018-12-22T01:00:27.096Z,100497.63
2018-12-22T01:02:54.869Z,100498.72
2018-12-22T01:05:22.605Z,100498.65
2018-12-22T01:07:50.398Z,100509.06
2018-12-22T01:10:18.095Z,100501.09
2018-12-22T01:12:45.813Z,100506.91
2018-12-22T01:15:13.696Z,100508.27
2018-12-22T01:17:41.412Z,100510.98
2018-12-22T01:20:09.367Z,100503.42
2018-12-22T01:22:37.191Z,100498.41
2018-12-22T01:25:05.694Z,100505.37
2018-12-22T01:27:33.406Z,100500.84
2018-12-22T01:30:01.103Z,100507.11
2018-12-22T01:32:28.843Z,100505.80
2018-12-22T01:34:56.577Z,100511.19
2018-12-22T01:37:24.287Z,100512.51
2018-12-22T01:39:52.095Z,100517.67
2018-12-22T01:42:19.842Z,100516.79
2018-12-22T01:44:47.626Z,100526.86
2018-12-22T01:47:15.360Z,100522.44
2018-12-22T01:49:43.100Z,100524.36
2018-12-22T01:52:10.855Z,100522.77
2018-12-22T01:54:38.573Z,100518.59
2018-12-22T01:57:06.323Z,100516.15
2018-12-22T01:59:34.037Z,100513.64
2018-12-22T02:02:01.769Z,100513.39
2018-12-22T02:04:29.488Z,100523.09
2018-12-22T02:06:57.235Z,100525.78
2018-12-22T02:09:24.956Z,100527.55
2018-12-22T02:11:52.672Z,100530.91
2018-12-22T02:14:20.908Z,100538.87
2018-12-22T02:16:48.704Z,100538.99
2018-12-22T02:19:16.386Z,100536.86
2018-12-22T02:21:44.115Z,100537.61
2018-12-22T02:24:11.844Z,100541.25
2018-12-22T02:26:39.695Z,100542.82
2018-12-22T02:29:07.614Z,100537.09
2018-12-22T02:31:35.314Z,100526.25
2018-12-22T02:34:03.128Z,100526.84
2018-12-22T02:36:30.876Z,100527.38
2018-12-22T02:38:58.582Z,100537.16
2018-12-22T02:41:26.350Z,100531.49
2018-12-22T02:43:54.053Z,100528.63
2018-12-22T02:46:21.811Z,100527.38
2018-12-22T02:48:49.669Z,100523.38
2018-12-22T02:51:17.418Z,100521.88
2018-12-22T02:53:45.129Z,100526.78
2018-12-22T02:56:12.857Z,100525.53
2018-12-22T02:58:40.599Z,100514.30
2018-12-22T03:01:08.366Z,100510.36
2018-12-22T03:03:36.517Z,100519.38
2018-12-22T03:06:04.251Z,100522.79
2018-12-22T03:08:31.981Z,100513.19
2018-12-22T03:10:59.707Z,100506.73
2018-12-22T03:13:27.410Z,100513.26
2018-12-22T03:15:55.125Z,100513.88
2018-12-22T03:18:22.833Z,100507.33
2018-12-22T03:20:50.629Z,100505.47
2018-12-22T03:23:18.385Z,100509.79
2018-12-22T03:25:46.108Z,100506.91
2018-12-22T03:28:13.851Z,100506.44
2018-12-22T03:30:41.618Z,100500.94
2018-12-22T03:33:09.377Z,100499.36
2018-12-22T03:35:37.164Z,100492.91
2018-12-22T03:38:04.907Z,100496.12
2018-12-22T03:40:32.667Z,100490.62
2018-12-22T03:43:00.440Z,100481.86
2018-12-22T03:45:28.158Z,100478.45
2018-12-22T03:47:55.925Z,100475.08
2018-12-22T03:50:23.664Z,100479.59
2018-12-22T03:52:51.441Z,100468.77
2018-12-22T03:55:19.182Z,100467.20
2018-12-22T03:57:46.922Z,100462.97
2018-12-22T04:00:14.670Z,100458.61
2018-12-22T04:02:42.409Z,100460.91
2018-12-22T04:05:10.218Z,100460.55
2018-12-22T04:07:37.972Z,100458.34
2018-12-22T04:10:06.261Z,100464.91
2018-12-22T04:12:33.972Z,100463.63
2018-12-22T04:15:01.703Z,100458.38
2018-12-22T04:17:29.418Z,100461.06
2018-12-22T04:19:57.147Z,100455.36
2018-12-22T04:22:24.897Z,100461.49
2018-12-22T04:24:54.400Z,100459.75
2018-12-22T04:27:22.109Z,100463.23
2018-12-22T04:29:49.818Z,100467.16
2018-12-22T04:32:17.593Z,100462.28
2018-12-22T04:34:45.353Z,100468.34
2018-12-22T04:37:13.084Z,100466.58
2018-12-22T04:39:40.833Z,100466.12
2018-12-22T04:42:08.596Z,100464.81
2018-12-22T04:44:36.347Z,100473.50
2018-12-22T04:47:04.100Z,100472.19
2018-12-22T04:49:31.816Z,100479.59
2018-12-22T04:51:59.550Z,100477.80
2018-12-22T04:54:27.230Z,100479.08
2018-12-22T04:56:54.954Z,100485.56
2018-12-22T04:59:22.679Z,100489.47
2018-12-22T05:01:50.408Z,100491.17
2018-12-22T05:04:18.162Z,100488.09
2018-12-22T05:06:45.919Z,100490.65
2018-12-22T05:09:13.734Z,100489.83
2018-12-22T05:11:41.573Z,100489.86
2018-12-22T05:14:09.308Z,100496.42
2018-12-22T05:16:37.045Z,100492.97
2018-12-22T05:19:04.752Z,100494.29
2018-12-22T05:21:32.650Z,100502.61
2018-12-22T05:24:00.375Z,100504.25
2018-12-22T05:26:28.126Z,100507.34
2018-12-22T05:28:55.856Z,100519.11
2018-12-22T05:31:23.591Z,100515.82
2018-12-22T05:33:51.317Z,100519.72
2018-12-22T05:36:19.019Z,100519.75
2018-12-22T05:38:46.769Z,100532.48
2018-12-22T05:41:14.578Z,100534.61
2018-12-22T05:43:42.393Z,100531.81
2018-12-22T05:46:10.072Z,100532.14
2018-12-22T05:48:38.721Z,100536.43
2018-12-22T05:51:06.444Z,100547.17
2018-12-22T05:53:34.217Z,100544.72
2018-12-22T05:56:01.948Z,100548.05
2018-12-22T05:58:30.748Z,100558.08
2018-12-22T06:00:58.516Z,100565.06
2018-12-22T06:03:26.253Z,100564.64
2018-12-22T06:05:53.977Z,100568.96
2018-12-22T06:08:21.708Z,100578.00
2018-12-22T06:10:49.606Z,100583.73
2018-12-22T06:13:17.345Z,100590.03
2018-12-22T06:15:45.078Z,100597.86
2018-12-22T06:18:12.785Z,100607.44
2018-12-22T06:20:40.552Z,100610.94
2018-12-22T06:23:08.323Z,100606.05
2018-12-22T06:25:36.036Z,100619.30
2018-12-22T06:28:03.847Z,100610.48
2018-12-22T06:30:31.549Z,100610.48
2018-12-22T06:32:59.234Z,100612.78
2018-12-22T06:35:26.953Z,100620.78
2018-12-22T06:37:54.719Z,100612.75
2018-12-22T06:40:22.547Z,100623.16
2018-12-22T06:42:50.309Z,100624.94
2018-12-22T06:45:18.086Z,100621.08
2018-12-22T06:47:45.827Z,100626.73
2018-12-22T06:50:13.614Z,100636.20
2018-12-22T06:52:41.466Z,100631.88
2018-12-22T06:55:09.191Z,100632.88
2018-12-22T06:57:36.979Z,100640.07
2018-12-22T07:00:05.474Z,100649.30
2018-12-22T07:02:33.307Z,100656.70
2018-12-22T07:05:02.582Z,100659.94
2018-12-22T07:07:30.440Z,100663.97
2018-12-22T07:09:58.155Z,100676.23
2018-12-22T07:12:25.908Z,100677.52
2018-12-22T07:14:53.657Z,100678.14
2018-12-22T07:17:21.842Z,100695.03
2018-12-22T07:19:49.570Z,100694.41
2018-12-22T07:22:17.303Z,100707.70
2018-12-22T07:24:45.044Z,100708.59
2018-12-22T07:27:12.768Z,100714.30
2018-12-22T07:29:40.508Z,100714.96
2018-12-22T07:32:08.215Z,100717.55
2018-12-22T07:34:35.924Z,100716.97
2018-12-22T07:37:03.640Z,100722.36
2018-12-22T07:39:31.464Z,100730.84
2018-12-22T07:41:59.229Z,100726.76
2018-12-22T07:44:27.089Z,100728.37
2018-12-22T07:46:54.906Z,100739.36
2018-12-22T07:49:22.698Z,100745.37
2018-12-22T07:51:50.402Z,100748.30
2018-12-22T07:54:18.119Z,100743.94
2018-12-22T07:56:45.857Z,100751.69
2018-12-22T07:59:13.562Z,100758.16
2018-12-22T08:01:41.264Z,100769.00
2018-12-22T08:04:08.971Z,100765.03
2018-12-22T08:06:36.668Z,100772.36
2018-12-22T08:09:06.592Z,100772.55
2018-12-22T08:11:34.344Z,100776.98
2018-12-22T08:14:02.085Z,100780.56
2018-12-22T08:16:29.890Z,100792.67
2018-12-22T08:18:57.701Z,100790.40
2018-12-22T08:21:25.461Z,100793.72
2018-12-22T08:23:53.163Z,100789.01
2018-12-22T08:26:20.889Z,100787.73
2018-12-22T08:28:49.341Z,100793.06
2018-12-22T08:31:17.115Z,100799.08
2018-12-22T08:33:44.855Z,100796.10
2018-12-22T08:36:12.630Z,100801.39
2018-12-22T08:38:40.394Z,100800.50
2018-12-22T08:41:08.177Z,100811.41
2018-12-22T08:43:35.880Z,100810.37
2018-12-22T08:46:03.685Z,100818.31
2018-12-22T08:48:31.431Z,100821.48
2018-12-22T08:50:59.166Z,100830.62
2018-12-22T08:53:26.929Z,100829.73
2018-12-22T08:55:54.668Z,100835.78
2018-12-22T08:58:22.393Z,100833.16
2018-12-22T09:00:52.329Z,100828.42
2018-12-22T09:03:20.434Z,100834.78
2018-12-22T09:05:48.238Z,100837.88
2018-12-22T09:08:16.050Z,100834.32
2018-12-22T09:10:43.888Z,100837.06
2018-12-22T09:13:11.896Z,100842.84
2018-12-22T09:15:39.624Z,100842.73
2018-12-22T09:18:07.796Z,100843.27
2018-12-22T09:20:35.566Z,100835.02
2018-12-22T09:23:03.506Z,100845.81
2018-12-22T09:25:31.302Z,100853.03
2018-12-22T09:27:59.107Z,100851.02
2018-12-22T09:30:26.820Z,100856.88
2018-12-22T09:32:54.690Z,100856.50
2018-12-22T09:35:22.484Z,100859.15
2018-12-22T09:37:50.210Z,100870.07
2018-12-22T09:40:17.954Z,100873.44
2018-12-22T09:42:45.688Z,100875.90
2018-12-22T09:45:13.425Z,100874.82
2018-12-22T09:47:41.164Z,100869.03
2018-12-22T09:50:11.225Z,100868.91
2018-12-22T09:52:38.975Z,100875.36
2018-12-22T09:55:06.781Z,100870.38
2018-12-22T09:57:34.584Z,100869.88
2018-12-22T10:00:02.613Z,100866.22
2018-12-22T10:02:30.349Z,100876.09
2018-12-22T10:04:58.068Z,100881.99
2018-12-22T10:07:25.793Z,100873.31
2018-12-22T10:09:53.522Z,100885.04
2018-12-22T10:12:21.227Z,100887.75
2018-12-22T10:14:49.341Z,100881.92
2018-12-22T10:17:17.064Z,100888.91
2018-12-22T10:19:44.769Z,100887.28
2018-12-22T10:22:12.514Z,100889.25
2018-12-22T10:24:40.229Z,100889.25
2018-12-22T10:27:08.044Z,100890.14
2018-12-22T10:29:35.787Z,100885.08
2018-12-22T10:32:03.552Z,100896.07
2018-12-22T10:34:31.366Z,100894.87
2018-12-22T10:36:59.068Z,100893.67
2018-12-22T10:39:26.896Z,100894.28
2018-12-22T10:41:55.658Z,100897.68
2018-12-22T10:44:23.539Z,100896.20
2018-12-22T10:46:51.340Z,100900.84
2018-12-22T10:49:20.320Z,100895.17
2018-12-22T10:51:48.016Z,100904.59
2018-12-22T10:54:15.750Z,100903.35
2018-12-22T10:56:43.510Z,100912.97
2018-12-22T10:59:11.228Z,100915.45
2018-12-22T11:01:38.931Z,100912.49
2018-12-22T11:04:06.657Z,100912.23
2018-12-22T11:06:34.458Z,100913.38
2018-12-22T11:09:02.567Z,100909.38
2018-12-22T11:11:30.309Z,100920.37
2018-12-22T11:13:58.037Z,100916.67
2018-12-22T11:16:26.643Z,100926.67
2018-12-22T11:18:54.342Z,100925.78
2018-12-22T11:21:22.084Z,100919.99
2018-12-22T11:23:49.908Z,100923.77
2018-12-22T11:26:17.627Z,100929.59
2018-12-22T11:28:45.353Z,100932.11
2018-12-22T11:31:13.041Z,100938.44
2018-12-22T11:33:40.787Z,100939.52
2018-12-22T11:36:08.467Z,100944.45
2018-12-22T11:38:36.157Z,100949.29
2018-12-22T11:41:03.925Z,100955.15
2018-12-22T11:43:31.737Z,100949.71
2018-12-22T11:45:59.485Z,100956.65
2018-12-22T11:48:52.138Z,100959.52
2018-12-22T11:51:20.014Z,100952.28
2018-12-22T11:53:48.357Z,100961.59
2018-12-22T11:56:16.073Z,100963.41
2018-12-22T11:58:43.874Z,100966.72
2018-12-22T12:01:11.592Z,100972.93
2018-12-22T12:03:39.293Z,100970.42
2018-12-22T12:06:07.060Z,100972.39
2018-12-22T12:08:34.803Z,100978.55
2018-12-22T12:11:02.524Z,100980.64
2018-12-22T12:13:30.259Z,100977.52
2018-12-22T12:16:38.579Z,100980.88
2018-12-22T12:19:18.753Z,100979.33
2018-12-22T12:21:46.479Z,100984.83
2018-12-22T12:24:15.019Z,100976.70
2018-12-22T12:26:42.901Z,100976.59
2018-12-22T12:29:10.722Z,100986.67
2018-12-22T12:31:38.421Z,100987.67
2018-12-22T12:34:06.272Z,100989.48
2018-12-22T12:36:34.569Z,100990.08
2018-12-22T12:39:02.409Z,100995.56
2018-12-22T12:41:30.261Z,101005.30
2018-12-22T12:43:58.226Z,101005.67
2018-12-22T12:46:47.120Z,101002.36
2018-12-22T12:49:15.438Z,101000.94
2018-12-22T12:51:43.179Z,101012.52
2018-12-22T12:54:10.973Z,101010.23
2018-12-22T12:56:42.305Z,101012.22
2018-12-22T12:59:10.052Z,101007.62
2018-12-22T13:01:38.122Z,101016.00
2018-12-22T13:04:05.836Z,101019.91
2018-12-22T13:06:37.022Z,101023.84
2018-12-22T13:09:07.008Z,101022.10
2018-12-22T13:11:34.747Z,101022.56
2018-12-22T13:14:07.911Z,101035.00
2018-12-22T13:16:36.231Z,101036.42
2018-12-22T13:19:03.996Z,101049.78
2018-12-22T13:21:32.067Z,101058.78
2018-12-22T13:23:59.823Z,101061.52
2018-12-22T13:26:36.418Z,101072.34
2018-12-22T13:28:57.427Z,101080.36
2018-12-22T13:31:26.738Z,101079.27
2018-12-22T13:33:54.490Z,101089.77
2018-12-22T13:36:22.269Z,101097.72
2018-12-22T13:38:59.660Z,101103.98
2018-12-22T13:41:27.433Z,101106.90
2018-12-22T13:43:55.211Z,101116.55
2018-12-22T13:46:22.967Z,101112.06
2018-12-22T13:48:50.876Z,101109.58
2018-12-22T13:51:18.921Z,101121.05
2018-12-22T13:53:46.796Z,101120.66
2018-12-22T13:56:14.533Z,101123.42
2018-12-22T13:58:42.933Z,101130.44
2018-12-22T14:01:13.981Z,101141.36
2018-12-22T14:03:43.810Z,101133.02
2018-12-22T14:06:16.987Z,101148.55
2018-12-22T14:08:44.710Z,101150.88
2018-12-22T14:11:12.427Z,101158.36
2018-12-22T14:13:40.148Z,101173.47
2018-12-22T14:16:13.632Z,101181.33
2018-12-22T14:18:48.464Z,101181.33
2018-12-22T14:21:16.544Z,101194.74
2018-12-22T14:24:14.397Z,101201.00
2018-12-22T14:26:42.216Z,101213.78
2018-12-22T14:29:09.920Z,101215.42
2018-12-22T14:31:37.626Z,101222.63
2018-12-22T14:34:10.052Z,101227.23
2018-12-22T14:36:37.782Z,101241.96
2018-12-22T14:39:07.157Z,101253.41
2018-12-22T14:41:34.941Z,101256.08
2018-12-22T14:44:02.687Z,101262.30
2018-12-22T14:46:30.395Z,101272.27
2018-12-22T14:48:58.135Z,101275.36
2018-12-22T14:51:25.848Z,101283.76
2018-12-22T14:53:53.552Z,101290.20
2018-12-22T14:56:22.619Z,101295.98
2018-12-22T14:58:50.410Z,101306.50
2018-12-22T15:01:18.214Z,101313.59
2018-12-22T15:03:46.831Z,101322.91
2018-12-22T15:06:14.556Z,101327.69
2018-12-22T15:08:42.279Z,101323.55
2018-12-22T15:11:10.130Z,101334.44
2018-12-22T15:13:37.877Z,101346.09
2018-12-22T15:16:05.633Z,101352.83
2018-12-22T15:18:33.464Z,101357.99
2018-12-22T15:21:01.210Z,101363.80
2018-12-22T15:23:28.900Z,101371.00
2018-12-22T15:25:56.666Z,101378.46
2018-12-22T15:28:24.389Z,101386.94
2018-12-22T15:30:52.121Z,101390.69
2018-12-22T15:33:19.846Z,101396.88
2018-12-22T15:35:47.612Z,101404.65
2018-12-22T15:38:15.364Z,101404.59
2018-12-22T15:40:43.108Z,101414.35
2018-12-22T15:43:10.829Z,101410.64
2018-12-22T15:45:38.597Z,101419.59
2018-12-22T15:48:06.769Z,101433.28
2018-12-22T15:50:36.241Z,101430.09
2018-12-22T15:53:04.153Z,101432.94
2018-12-22T15:55:31.897Z,101432.25
2018-12-22T15:57:59.724Z,101444.84
2018-12-22T16:00:27.486Z,101448.13
2018-12-22T16:02:55.186Z,101449.53
2018-12-22T16:05:22.987Z,101454.50
2018-12-22T16:07:52.080Z,101461.20
2018-12-22T16:10:19.799Z,101473.63
2018-12-22T16:12:47.580Z,101470.63
2018-12-22T16:15:17.213Z,101478.30
2018-12-22T16:17:44.974Z,101483.70
2018-12-22T16:20:14.112Z,101482.24
2018-12-22T16:22:45.934Z,101484.06
2018-12-22T16:25:13.731Z,101492.02
2018-12-22T16:27:41.483Z,101491.28
2018-12-22T16:30:16.979Z,101495.99
2018-12-22T16:32:44.710Z,101500.38
2018-12-22T16:35:12.469Z,101507.28
2018-12-22T16:37:40.254Z,101503.83
2018-12-22T16:40:09.385Z,101509.94
2018-12-22T16:42:37.125Z,101508.22
2018-12-22T16:45:06.706Z,101508.84
2018-12-22T16:47:34.440Z,101513.64
2018-12-22T16:50:02.155Z,101511.52
2018-12-22T16:52:29.916Z,101516.94
2018-12-22T16:54:57.677Z,101515.52
2018-12-22T16:57:25.483Z,101514.95
2018-12-22T16:59:53.425Z,101505.11
2018-12-22T17:02:34.612Z,101507.38
2018-12-22T17:05:02.394Z,101509.53
2018-12-22T17:07:30.193Z,101511.31
2018-12-22T17:09:57.972Z,101512.83
2018-12-22T17:12:25.748Z,101512.33
2018-12-22T17:14:53.549Z,101511.02
2018-12-22T17:17:21.350Z,101519.30
2018-12-22T17:19:49.097Z,101522.88
2018-12-22T17:23:22.787Z,101524.13
2018-12-22T17:25:53.810Z,101529.77
2018-12-22T17:28:28.175Z,101527.72
2018-12-22T17:30:51.485Z,101533.27
2018-12-22T17:33:20.263Z,101532.99
2018-12-22T17:35:48.142Z,101537.05
2018-12-22T17:38:15.865Z,101528.66
2018-12-22T17:40:43.605Z,101538.27
2018-12-22T17:43:11.334Z,101540.00
2018-12-22T17:45:39.108Z,101540.80
2018-12-22T17:48:06.940Z,101546.20
2018-12-22T17:50:34.661Z,101545.06
2018-12-22T17:53:02.394Z,101547.12
2018-12-22T17:55:30.193Z,101552.84
2018-12-22T17:57:57.953Z,101565.11
2018-12-22T18:00:25.747Z,101562.00
2018-12-22T18:02:53.558Z,101571.50
2018-12-22T18:05:21.369Z,101580.77
2018-12-22T18:07:55.525Z,101573.14
2018-12-22T18:10:23.271Z,101575.03
2018-12-22T18:12:51.633Z,101580.22
2018-12-22T18:15:21.441Z,101592.81
2018-12-22T18:20:25.291Z,101592.98
2018-12-22T18:22:53.007Z,101591.41
2018-12-22T18:25:22.015Z,101589.63
2018-12-22T18:27:49.792Z,101590.20
2018-12-22T18:30:17.574Z,101588.89
2018-12-22T18:32:45.435Z,101590.04
2018-12-22T18:35:13.197Z,101590.03
2018-12-22T18:37:40.933Z,101593.87
2018-12-22T18:45:11.009Z,101609.19
2018-12-22T18:47:38.953Z,101609.28
2018-12-22T18:50:10.866Z,101612.13
2018-12-22T18:52:38.629Z,101615.48
2018-12-22T18:55:07.473Z,101623.61
2018-12-22T18:57:35.245Z,101617.95
2018-12-22T19:00:03.376Z,101622.88
2018-12-22T19:02:31.185Z,101620.34
2018-12-22T19:04:58.987Z,101623.13
2018-12-22T19:07:26.794Z,101624.13
2018-12-22T19:09:54.560Z,101624.77
2018-12-22T19:12:22.257Z,101619.77
2018-12-22T19:14:52.841Z,101616.58
2018-12-22T19:17:20.705Z,101619.20
2018-12-22T19:19:48.972Z,101621.66
2018-12-22T19:22:16.703Z,101619.45
2018-12-22T19:24:45.323Z,101633.72
2018-12-22T19:27:13.767Z,101639.70
2018-12-22T19:29:42.112Z,101645.52
2018-12-22T19:32:10.866Z,101639.12
2018-12-22T19:34:39.501Z,101635.34
2018-12-22T19:37:07.307Z,101633.30
2018-12-22T19:39:35.036Z,101646.09
2018-12-22T19:42:02.721Z,101643.95
2018-12-22T19:44:35.037Z,101642.89
2018-12-22T19:47:03.666Z,101641.84
2018-12-22T19:49:31.603Z,101645.41
2018-12-22T19:52:00.776Z,101651.49
2018-12-22T19:54:37.728Z,101647.88
2018-12-22T19:57:05.641Z,101645.67
2018-12-22T19:59:33.415Z,101652.55
2018-12-22T20:02:01.131Z,101648.04
2018-12-22T20:04:28.872Z,101640.91
2018-12-22T20:06:56.623Z,101641.52
2018-12-22T20:09:25.965Z,101641.99
2018-12-22T20:11:54.255Z,101654.69
2018-12-22T20:14:22.013Z,101658.20
2018-12-22T20:16:49.835Z,101654.44
2018-12-22T20:19:17.524Z,101652.80
2018-12-22T20:21:45.233Z,101661.50
2018-12-22T20:24:12.965Z,101650.17
2018-12-22T20:26:40.713Z,101651.73
2018-12-22T20:29:08.452Z,101649.95
2018-12-22T20:31:36.163Z,101657.41
2018-12-22T20:34:11.087Z,101662.30
2018-12-22T20:36:33.668Z,101667.33
2018-12-22T20:39:01.384Z,101660.52
2018-12-22T20:41:29.092Z,101668.47
2018-12-22T20:43:56.828Z,101670.91
2018-12-22T20:46:24.557Z,101676.08
2018-12-22T20:48:52.324Z,101678.61
2018-12-22T20:51:20.041Z,101682.90
2018-12-22T20:53:47.736Z,101676.25
2018-12-22T20:56:15.427Z,101687.08
2018-12-22T20:58:43.155Z,101686.32
2018-12-22T21:01:10.876Z,101685.02
2018-12-22T21:03:40.118Z,101684.95
2018-12-22T21:06:15.707Z,101681.84
2018-12-22T21:08:43.521Z,101690.76
2018-12-22T21:11:11.533Z,101694.80
2018-12-22T21:13:39.268Z,101696.33
2018-12-22T21:16:07.822Z,101700.20
2018-12-22T21:18:35.644Z,101691.98
2018-12-22T21:21:04.408Z,101699.05
2018-12-22T21:23:32.124Z,101702.34
2018-12-22T21:26:00.194Z,101700.27
2018-12-22T21:28:28.004Z,101699.85
2018-12-22T21:30:55.739Z,101706.41
2018-12-22T21:33:23.489Z,101706.77
2018-12-22T21:35:53.486Z,101697.90
2018-12-22T21:38:21.032Z,101707.05
2018-12-22T21:40:50.097Z,101704.62
2018-12-22T21:43:18.034Z,101702.41
2018-12-22T21:45:45.829Z,101706.66
2018-12-22T21:48:13.646Z,101705.92
2018-12-22T21:50:42.043Z,101700.91
2018-12-22T21:53:10.743Z,101701.52
2018-12-22T21:55:38.819Z,101712.23
2018-12-22T21:58:07.133Z,101708.04
2018-12-22T22:00:34.872Z,101709.19
2018-12-22T22:03:02.617Z,101709.34
2018-12-22T22:05:30.337Z,101722.77
2018-12-22T22:07:58.460Z,101725.55
2018-12-22T22:10:26.170Z,101725.91
2018-12-22T22:12:53.863Z,101723.55
2018-12-22T22:15:21.610Z,101726.91
2018-12-22T22:17:52.357Z,101727.70
2018-12-22T22:20:20.111Z,101734.25
2018-12-22T22:22:48.641Z,101733.83
2018-12-22T22:25:16.473Z,101731.61
2018-12-22T22:27:44.215Z,101730.94
2018-12-22T22:30:11.917Z,101735.91
2018-12-22T22:32:39.682Z,101743.20
2018-12-22T22:35:07.429Z,101742.88
2018-12-22T22:37:35.126Z,101744.62
2018-12-22T22:40:03.095Z,101748.97
2018-12-22T22:42:30.832Z,101752.05
2018-12-22T22:44:58.536Z,101751.69
2018-12-22T22:47:26.244Z,101761.66
2018-12-22T22:49:53.972Z,101757.94
2018-12-22T22:52:21.668Z,101760.16
2018-12-22T22:54:49.601Z,101757.53
2018-12-22T22:57:17.328Z,101766.05
2018-12-22T22:59:45.084Z,101768.67
2018-12-22T23:02:12.824Z,101771.23
2018-12-22T23:04:40.504Z,101770.05
2018-12-22T23:07:08.252Z,101773.13
2018-12-22T23:09:36.056Z,101773.02
2018-12-22T23:12:03.826Z,101775.60
2018-12-22T23:14:31.566Z,101784.63
2018-12-22T23:16:59.313Z,101781.97
2018-12-22T23:19:27.044Z,101779.98
2018-12-22T23:21:54.794Z,101783.28
2018-12-22T23:24:22.515Z,101791.60
2018-12-22T23:26:50.342Z,101786.28
2018-12-22T23:29:18.172Z,101786.95
2018-12-22T23:31:46.101Z,101784.25
2018-12-22T23:34:13.840Z,101784.91
2018-12-22T23:36:41.564Z,101780.42
2018-12-22T23:39:09.312Z,101783.94
2018-12-22T23:41:37.112Z,101793.86
2018-12-22T23:44:05.004Z,101793.37
2018-12-22T23:46:32.812Z,101785.14
2018-12-22T23:49:00.499Z,101786.70
2018-12-22T23:51:28.237Z,101781.23
2018-12-22T23:53:55.945Z,101775.75
2018-12-22T23:56:23.637Z,101780.33
2018-12-22T23:58:51.360Z,101784.09
